Time;durP1;ratioP1;P1;durP2;ratioP2;P2;SDS_P1;SDS_P2;PMS_P1;PMS_P2;Temp;Humidity;BMP_temperature;BMP_pressure;BME280_temperature;BME280_humidity;BME280_pressure;Samples;Min_cycle;Max_cycle;Signal;HPM_P1;HPM_P2
2022/11/27 09:50:55;;;;;;;;;;;20.30;95.70;;;;;;6089379;23;21113;-72
2022/11/27 09:53:27;;;;;;;;;;;20.30;95.80;;;;;;6122475;23;19924;-72
2022/11/27 09:55:54;;;;;;;;;;;20.30;95.90;;;;;;6096948;23;19919;-70
2022/11/27 09:58:37;;;;;;;;;;;20.30;95.70;;;;;;6096197;23;19988;-70
2022/11/27 10:01:10;;;;;;;;;;;20.30;95.80;;;;;;6096990;23;19909;-74
2022/11/27 10:03:37;;;;;;;;;;;20.30;95.80;;;;;;6122431;23;20351;-74
2022/11/27 10:06:27;;;;;;;;;;;20.20;95.60;;;;;;6122022;23;19916;-74
2022/11/27 10:08:53;;;;;;;;;;;20.30;95.70;;;;;;6068109;23;20356;-73
2022/11/27 10:11:20;;;;;;;;;;;20.20;95.60;;;;;;6122476;23;19909;-73
2022/11/27 10:13:47;;;;;;;;;;;20.30;95.80;;;;;;6122725;23;19913;-74
2022/11/27 10:16:13;;;;;;;;;;;20.30;95.80;;;;;;6122651;23;20347;-74
2022/11/27 10:18:42;;;;;;;;;;;20.30;95.90;;;;;;6122642;23;19941;-74
2022/11/27 10:21:38;;;;;;;;;;;20.40;96.10;;;;;;6122622;23;20012;-74
2022/11/27 10:24:23;;;;;;;;;;;20.40;96.10;;;;;;6097314;23;19917;-74
2022/11/27 10:26:49;;;;;;;;;;;20.30;95.80;;;;;;6122334;23;19908;-72
2022/11/27 10:29:19;;;;;;;;;;;20.30;95.50;;;;;;6120036;23;19909;-71
2022/11/27 10:31:53;;;;;;;;;;;20.20;95.60;;;;;;6121282;23;19912;-71
2022/11/27 10:34:38;;;;;;;;;;;20.20;95.70;;;;;;6096106;23;19992;-71
2022/11/27 10:37:31;;;;;;;;;;;20.20;95.80;;;;;;6122017;23;20328;-71
2022/11/27 10:40:11;;;;;;;;;;;20.20;95.90;;;;;;6076419;23;19983;-70
2022/11/27 10:42:40;;;;;;;;;;;20.10;95.60;;;;;;6122315;23;19909;-70
2022/11/27 10:45:07;;;;;;;;;;;19.90;95.50;;;;;;6121882;23;19905;-70
2022/11/27 10:47:34;;;;;;;;;;;19.80;95.50;;;;;;6122068;23;20371;-70
2022/11/27 10:50:01;;;;;;;;;;;19.80;95.70;;;;;;6095617;23;19984;-70
2022/11/27 10:52:27;;;;;;;;;;;19.80;95.80;;;;;;6121762;23;19967;-70
2022/11/27 10:54:58;;;;;;;;;;;19.80;96.00;;;;;;6121467;23;20321;-70
2022/11/27 10:57:48;;;;;;;;;;;19.80;96.10;;;;;;6095553;23;20305;-71
2022/11/27 11:00:22;;;;;;;;;;;19.80;96.10;;;;;;6120966;23;19912;-70
2022/11/27 11:02:48;;;;;;;;;;;19.70;96.10;;;;;;6121728;23;19960;-70
2022/11/27 11:05:19;;;;;;;;;;;19.70;96.20;;;;;;6122225;23;20351;-70
2022/11/27 11:08:05;;;;;;;;;;;19.70;96.20;;;;;;6121965;23;19916;-70
2022/11/27 11:10:35;;;;;;;;;;;19.70;96.30;;;;;;6095474;23;19932;-70
2022/11/27 11:13:05;;;;;;;;;;;19.70;96.40;;;;;;6121725;23;19956;-70
2022/11/27 11:15:32;;;;;;;;;;;19.70;96.40;;;;;;6121563;23;20501;-70
2022/11/27 11:17:59;;;;;;;;;;;19.70;96.40;;;;;;6096382;23;19924;-69
2022/11/27 11:20:25;;;;;;;;;;;19.70;96.60;;;;;;6096018;23;19905;-70
2022/11/27 11:22:52;;;;;;;;;;;19.80;96.60;;;;;;6121469;23;20052;-70
2022/11/27 11:25:19;;;;;;;;;;;19.70;96.60;;;;;;6096160;23;19915;-70
2022/11/27 11:27:46;;;;;;;;;;;19.70;96.70;;;;;;6121458;23;19909;-69
2022/11/27 11:30:20;;;;;;;;;;;19.80;96.80;;;;;;6119702;23;19915;-70
2022/11/27 11:32:48;;;;;;;;;;;19.80;96.80;;;;;;6096175;23;19991;-70
2022/11/27 11:35:28;;;;;;;;;;;19.80;96.80;;;;;;6095999;23;19949;-70
2022/11/27 11:37:55;;;;;;;;;;;19.80;96.80;;;;;;6099345;23;19911;-70
2022/11/27 11:40:29;;;;;;;;;;;19.70;96.80;;;;;;6125131;23;19988;-70
2022/11/27 11:42:57;;;;;;;;;;;19.70;96.80;;;;;;6098474;23;19964;-69
2022/11/27 11:45:24;;;;;;;;;;;19.70;96.80;;;;;;6124288;23;19912;-69
2022/11/27 11:47:51;;;;;;;;;;;19.70;96.80;;;;;;6125033;23;19905;-69
2022/11/27 11:50:40;;;;;;;;;;;19.70;96.80;;;;;;6125102;23;19905;-69
2022/11/27 11:53:18;;;;;;;;;;;19.70;96.90;;;;;;6099283;23;20342;-69
2022/11/27 11:55:48;;;;;;;;;;;19.70;96.90;;;;;;6124451;23;19917;-69
2022/11/27 11:58:21;;;;;;;;;;;19.60;96.80;;;;;;6124901;23;20305;-69
2022/11/27 12:00:48;;;;;;;;;;;19.60;96.80;;;;;;6125074;23;19976;-70
2022/11/27 12:03:33;;;;;;;;;;;19.50;96.70;;;;;;6126076;23;19933;-70
2022/11/27 12:06:12;;;;;;;;;;;19.40;96.60;;;;;;6125757;23;19909;-70
2022/11/27 12:08:39;;;;;;;;;;;19.20;96.10;;;;;;6099727;23;19932;-70
2022/11/27 12:11:11;;;;;;;;;;;19.20;96.20;;;;;;6125558;23;19909;-70
2022/11/27 12:13:56;;;;;;;;;;;19.20;96.10;;;;;;6099658;23;19913;-69
2022/11/27 12:16:38;;;;;;;;;;;19.10;96.20;;;;;;6123926;23;19936;-69
2022/11/27 12:19:23;;;;;;;;;;;19.00;96.30;;;;;;6125222;23;19952;-69
2022/11/27 12:22:08;;;;;;;;;;;19.00;96.10;;;;;;6099523;23;19912;-69
2022/11/27 12:24:37;;;;;;;;;;;19.00;96.30;;;;;;6124988;23;19905;-68
2022/11/27 12:27:15;;;;;;;;;;;18.90;96.60;;;;;;6100168;23;20042;-68
2022/11/27 12:29:59;;;;;;;;;;;18.90;96.80;;;;;;6101276;23;19945;-69
2022/11/27 12:32:42;;;;;;;;;;;18.90;97.00;;;;;;6126435;23;19933;-69
2022/11/27 12:35:27;;;;;;;;;;;18.80;96.90;;;;;;6100666;23;19913;-69
2022/11/27 12:37:57;;;;;;;;;;;18.80;97.20;;;;;;6126761;23;19959;-69
2022/11/27 12:40:35;;;;;;;;;;;18.80;97.20;;;;;;6126306;23;19909;-69
2022/11/27 12:43:03;;;;;;;;;;;18.70;97.10;;;;;;6100921;23;19916;-69
2022/11/27 12:45:40;;;;;;;;;;;18.70;97.30;;;;;;6126592;23;19913;-69
2022/11/27 12:48:18;;;;;;;;;;;18.70;97.40;;;;;;6101009;23;19915;-69
2022/11/27 12:50:47;;;;;;;;;;;18.70;97.30;;;;;;6100166;23;19901;-70
2022/11/27 12:53:17;;;;;;;;;;;18.70;97.50;;;;;;6100824;23;19956;-69
2022/11/27 12:56:03;;;;;;;;;;;18.70;97.50;;;;;;6126513;23;19913;-69
2022/11/27 12:58:37;;;;;;;;;;;18.70;97.40;;;;;;6106155;23;19927;-69
2022/11/27 13:01:06;;;;;;;;;;;18.60;97.50;;;;;;6100715;23;19948;-69
2022/11/27 13:03:38;;;;;;;;;;;18.60;97.50;;;;;;6126302;23;19905;-69
2022/11/27 13:06:10;;;;;;;;;;;18.50;97.40;;;;;;6100927;23;20043;-68
2022/11/27 13:08:51;;;;;;;;;;;18.60;97.50;;;;;;6126627;23;19905;-68
2022/11/27 13:11:17;;;;;;;;;;;18.60;97.60;;;;;;6099998;23;19992;-68
2022/11/27 13:13:52;;;;;;;;;;;18.50;97.50;;;;;;6126286;23;19935;-69
2022/11/27 13:16:21;;;;;;;;;;;18.50;97.50;;;;;;6076468;23;20229;-69
2022/11/27 13:19:03;;;;;;;;;;;18.50;97.60;;;;;;6100556;23;19912;-69
2022/11/27 13:21:31;;;;;;;;;;;18.50;97.70;;;;;;6100046;23;19909;-69
2022/11/27 13:24:00;;;;;;;;;;;18.40;97.50;;;;;;6100487;23;20273;-68
2022/11/27 13:26:27;;;;;;;;;;;18.30;97.50;;;;;;6100629;23;19936;-69
2022/11/27 13:28:57;;;;;;;;;;;18.30;97.60;;;;;;6126523;23;20032;-68
2022/11/27 13:31:25;;;;;;;;;;;18.30;97.70;;;;;;6100403;23;20056;-70
2022/11/27 13:33:52;;;;;;;;;;;18.30;97.70;;;;;;6100471;23;20243;-68
2022/11/27 13:36:19;;;;;;;;;;;18.40;97.80;;;;;;6100687;23;19908;-69
2022/11/27 13:38:51;;;;;;;;;;;18.30;97.70;;;;;;6100210;23;19916;-69
2022/11/27 13:41:21;;;;;;;;;;;18.30;97.70;;;;;;6100061;23;19916;-69
2022/11/27 13:43:49;;;;;;;;;;;18.30;97.80;;;;;;6100339;23;19909;-69
2022/11/27 14:11:04;;;;;;;;;;;17.90;97.60;;;;;;6092243;23;19960;-68
2022/11/27 14:13:49;;;;;;;;;;;17.80;97.60;;;;;;6067653;23;19918;-68
2022/11/27 14:16:29;;;;;;;;;;;17.80;97.70;;;;;;6066140;23;19910;-69
2022/11/27 14:19:02;;;;;;;;;;;17.80;97.70;;;;;;6066232;23;20451;-69
2022/11/27 14:21:37;;;;;;;;;;;17.80;97.70;;;;;;6042146;23;19927;-68
2022/11/27 14:24:05;;;;;;;;;;;17.80;97.80;;;;;;6066109;23;20297;-68
2022/11/27 14:26:32;;;;;;;;;;;17.80;97.80;;;;;;6066238;23;19909;-68
2022/11/27 14:28:59;;;;;;;;;;;17.80;97.80;;;;;;6067041;23;19916;-69
2022/11/27 14:31:35;;;;;;;;;;;17.90;97.90;;;;;;6067454;23;19906;-68
2022/11/27 14:34:02;;;;;;;;;;;17.80;97.80;;;;;;6067644;23;19914;-68
2022/11/27 14:36:30;;;;;;;;;;;17.90;97.90;;;;;;6065824;23;19914;-69
2022/11/27 14:39:06;;;;;;;;;;;17.80;97.70;;;;;;6067472;23;19905;-68
2022/11/27 14:41:32;;;;;;;;;;;17.80;97.80;;;;;;6067631;23;19909;-69
2022/11/27 14:44:06;;;;;;;;;;;17.80;97.80;;;;;;6067539;23;19914;-69
2022/11/27 14:46:33;;;;;;;;;;;17.80;97.70;;;;;;6067644;23;19912;-69
2022/11/27 14:48:59;;;;;;;;;;;17.70;97.70;;;;;;6067188;23;20005;-69
2022/11/27 14:51:33;;;;;;;;;;;17.70;97.70;;;;;;6066883;23;19906;-69
2022/11/27 14:54:21;;;;;;;;;;;17.70;97.60;;;;;;6066039;23;19914;-68
2022/11/27 14:56:48;;;;;;;;;;;17.60;97.50;;;;;;6066340;23;20348;-69
2022/11/27 14:59:16;;;;;;;;;;;17.70;97.60;;;;;;6066120;23;19906;-69
2022/11/27 15:01:42;;;;;;;;;;;17.70;97.60;;;;;;6067152;23;19909;-69
2022/11/27 15:04:28;;;;;;;;;;;17.70;97.60;;;;;;6065872;23;19916;-68
2022/11/27 15:06:55;;;;;;;;;;;17.70;97.50;;;;;;6066062;23;19905;-69
2022/11/27 15:09:22;;;;;;;;;;;17.70;97.50;;;;;;6067578;23;19905;-69
2022/11/27 15:12:12;;;;;;;;;;;17.80;97.60;;;;;;6065791;23;19992;-69
2022/11/27 15:14:38;;;;;;;;;;;17.80;97.50;;;;;;6055433;23;19922;-69
2022/11/27 15:17:05;;;;;;;;;;;17.80;97.60;;;;;;6065387;23;19906;-69
2022/11/27 15:19:33;;;;;;;;;;;17.80;97.50;;;;;;6067247;23;19906;-69
2022/11/27 15:21:59;;;;;;;;;;;17.80;97.50;;;;;;6065780;23;19933;-69
2022/11/27 15:24:28;;;;;;;;;;;17.80;97.30;;;;;;6067811;23;19906;-70
2022/11/27 15:26:54;;;;;;;;;;;17.80;97.40;;;;;;6067463;23;19912;-70
2022/11/27 15:29:37;;;;;;;;;;;17.80;97.30;;;;;;6067354;23;20325;-69
2022/11/27 15:32:24;;;;;;;;;;;17.70;97.00;;;;;;6067685;23;19905;-70
2022/11/27 15:34:51;;;;;;;;;;;17.70;96.90;;;;;;6066934;23;19914;-70
2022/11/27 15:37:18;;;;;;;;;;;17.70;97.20;;;;;;6065934;23;19956;-69
2022/11/27 15:39:45;;;;;;;;;;;17.70;97.20;;;;;;6067022;23;20049;-70
2022/11/27 15:42:13;;;;;;;;;;;17.80;97.20;;;;;;6064797;23;19914;-70
2022/11/27 15:44:40;;;;;;;;;;;17.80;97.20;;;;;;6067206;23;19913;-70
2022/11/27 15:47:06;;;;;;;;;;;17.80;97.20;;;;;;6066738;23;20450;-69
2022/11/27 15:49:33;;;;;;;;;;;17.70;97.10;;;;;;6065104;23;19944;-70
2022/11/27 15:52:00;;;;;;;;;;;17.70;96.90;;;;;;6067396;23;19933;-69
2022/11/27 15:54:26;;;;;;;;;;;17.70;96.80;;;;;;6067306;23;19914;-69
2022/11/27 15:56:53;;;;;;;;;;;17.70;96.90;;;;;;6067398;23;19946;-69
2022/11/27 15:59:20;;;;;;;;;;;17.70;96.90;;;;;;6067010;23;20327;-69
2022/11/27 16:01:46;;;;;;;;;;;17.70;97.00;;;;;;6067839;23;19917;-69
2022/11/27 16:04:13;;;;;;;;;;;17.70;96.80;;;;;;6069070;23;19973;-69
2022/11/27 16:06:39;;;;;;;;;;;17.70;96.60;;;;;;6069030;23;19970;-70
2022/11/27 16:09:06;;;;;;;;;;;17.70;96.70;;;;;;6068857;23;19992;-70
2022/11/27 16:11:33;;;;;;;;;;;17.70;96.90;;;;;;6076986;23;19921;-70
2022/11/27 16:13:59;;;;;;;;;;;17.70;96.80;;;;;;6127203;23;19913;-70
2022/11/27 16:16:26;;;;;;;;;;;17.80;96.90;;;;;;6127323;23;19905;-70
2022/11/27 16:18:55;;;;;;;;;;;17.70;96.90;;;;;;6127004;23;20324;-69
2022/11/27 16:21:22;;;;;;;;;;;17.70;96.70;;;;;;6127070;23;19908;-69
2022/11/27 16:23:48;;;;;;;;;;;17.70;96.70;;;;;;6126860;23;20366;-70
2022/11/27 16:26:15;;;;;;;;;;;17.70;96.80;;;;;;6126922;23;19912;-70
2022/11/27 16:28:42;;;;;;;;;;;17.70;96.80;;;;;;6076934;23;19905;-70
2022/11/27 16:31:10;;;;;;;;;;;17.70;96.70;;;;;;6126336;23;20387;-69
2022/11/27 16:33:36;;;;;;;;;;;17.70;96.80;;;;;;6101013;23;20317;-70
2022/11/27 16:36:10;;;;;;;;;;;17.70;96.70;;;;;;6126934;23;20325;-70
2022/11/27 16:38:36;;;;;;;;;;;17.70;96.70;;;;;;6126851;23;19959;-70
2022/11/27 16:41:04;;;;;;;;;;;17.80;96.80;;;;;;6076708;23;19912;-69
2022/11/27 16:43:34;;;;;;;;;;;17.70;96.80;;;;;;6126375;23;19905;-70
2022/11/27 16:46:04;;;;;;;;;;;17.70;96.60;;;;;;6126454;23;19905;-69
2022/11/27 16:48:32;;;;;;;;;;;17.70;96.80;;;;;;6126508;23;19912;-70
2022/11/27 16:51:05;;;;;;;;;;;17.80;96.80;;;;;;6100899;23;19968;-69
2022/11/27 16:53:32;;;;;;;;;;;17.70;96.70;;;;;;6126298;23;19954;-70
2022/11/27 16:55:58;;;;;;;;;;;17.70;96.30;;;;;;6125557;23;19905;-69
2022/11/27 16:58:25;;;;;;;;;;;17.70;96.20;;;;;;6126521;23;19916;-69
2022/11/27 17:00:53;;;;;;;;;;;17.60;96.10;;;;;;6126072;23;20221;-69
2022/11/27 17:03:20;;;;;;;;;;;17.70;96.20;;;;;;6126188;23;19920;-69
2022/11/27 17:05:46;;;;;;;;;;;17.70;96.30;;;;;;6126558;23;20241;-69
2022/11/27 17:08:13;;;;;;;;;;;17.70;96.30;;;;;;6126579;23;19960;-69
2022/11/27 17:10:40;;;;;;;;;;;17.70;96.40;;;;;;6125890;23;19959;-69
2022/11/27 17:13:06;;;;;;;;;;;17.60;95.80;;;;;;6099887;23;19967;-69
2022/11/27 17:15:34;;;;;;;;;;;17.60;96.10;;;;;;6126175;23;20225;-69
2022/11/27 17:18:01;;;;;;;;;;;17.70;96.30;;;;;;6100671;23;19984;-70
2022/11/27 17:20:28;;;;;;;;;;;17.60;95.80;;;;;;6126536;23;20331;-69
2022/11/27 17:22:55;;;;;;;;;;;17.60;95.70;;;;;;6126421;23;19905;-69
2022/11/27 17:25:24;;;;;;;;;;;17.60;95.90;;;;;;6126120;23;19952;-69
2022/11/27 17:27:51;;;;;;;;;;;17.70;96.10;;;;;;6126589;23;20520;-69
2022/11/27 17:30:18;;;;;;;;;;;17.70;96.10;;;;;;6100103;23;19959;-69
2022/11/27 17:32:45;;;;;;;;;;;17.50;95.40;;;;;;6100244;23;20232;-69
2022/11/27 17:35:12;;;;;;;;;;;17.60;95.90;;;;;;6125708;23;19913;-68
2022/11/27 17:37:38;;;;;;;;;;;17.60;95.90;;;;;;6125831;23;19970;-69
2022/11/27 17:40:05;;;;;;;;;;;17.50;95.70;;;;;;6126314;23;19987;-69
2022/11/27 17:42:32;;;;;;;;;;;17.50;95.60;;;;;;6126461;23;19953;-69
2022/11/27 17:44:58;;;;;;;;;;;17.60;95.80;;;;;;6125938;23;20292;-69
2022/11/27 17:47:25;;;;;;;;;;;17.60;95.60;;;;;;6100207;23;19959;-69
2022/11/27 17:49:52;;;;;;;;;;;17.50;95.30;;;;;;6124191;23;20271;-69
2022/11/27 17:52:18;;;;;;;;;;;17.50;95.40;;;;;;6125471;23;19905;-69
2022/11/27 17:54:45;;;;;;;;;;;17.50;95.50;;;;;;6125666;23;19923;-69
2022/11/27 17:57:12;;;;;;;;;;;17.50;95.40;;;;;;6125405;23;19912;-69
2022/11/27 17:59:38;;;;;;;;;;;17.60;95.60;;;;;;6125188;23;19911;-69
2022/11/27 18:02:05;;;;;;;;;;;17.60;95.60;;;;;;6125603;23;20281;-69
2022/11/27 18:04:32;;;;;;;;;;;17.60;95.70;;;;;;6125408;23;19909;-69
2022/11/27 18:09:36;;;;;;;;;;;17.60;95.60;;;;;;6125394;23;19921;-67
2022/11/27 18:12:05;;;;;;;;;;;17.60;95.60;;;;;;6125335;23;20327;-67
2022/11/27 18:14:31;;;;;;;;;;;17.60;95.50;;;;;;6125018;23;20246;-67
2022/11/27 18:17:03;;;;;;;;;;;17.40;94.50;;;;;;6125446;23;19911;-67
2022/11/27 18:19:30;;;;;;;;;;;17.50;95.20;;;;;;6126065;23;19905;-68
2022/11/27 18:21:58;;;;;;;;;;;17.50;95.30;;;;;;6125649;23;19905;-67
2022/11/27 18:24:24;;;;;;;;;;;17.50;95.30;;;;;;6125470;23;19924;-67
2022/11/27 18:26:54;;;;;;;;;;;17.50;94.50;;;;;;6125532;23;19919;-68
2022/11/27 18:29:21;;;;;;;;;;;17.50;95.00;;;;;;6125297;23;19969;-67
2022/11/27 18:31:49;;;;;;;;;;;17.60;95.30;;;;;;6099439;23;19928;-66
2022/11/27 18:34:15;;;;;;;;;;;17.60;95.00;;;;;;6124701;23;19913;-66
2022/11/27 18:36:42;;;;;;;;;;;17.50;94.70;;;;;;6125138;23;20265;-66
2022/11/27 18:39:08;;;;;;;;;;;17.50;95.10;;;;;;6125007;23;19913;-67
2022/11/27 18:41:36;;;;;;;;;;;17.50;94.60;;;;;;6125401;23;20349;-67
2022/11/27 18:44:03;;;;;;;;;;;17.60;94.90;;;;;;6125151;23;19905;-67
2022/11/27 18:46:29;;;;;;;;;;;17.50;94.60;;;;;;6126326;23;19932;-67
2022/11/27 18:48:56;;;;;;;;;;;17.50;94.30;;;;;;6125731;23;19909;-67
2022/11/27 18:51:24;;;;;;;;;;;17.50;94.60;;;;;;6125749;23;19952;-67
2022/11/27 18:53:50;;;;;;;;;;;17.50;94.60;;;;;;6125446;23;19936;-67
2022/11/27 18:56:36;;;;;;;;;;;17.50;94.50;;;;;;6125341;23;19964;-67
2022/11/27 18:59:03;;;;;;;;;;;17.60;94.50;;;;;;6125296;23;19905;-67
2022/11/27 19:01:30;;;;;;;;;;;17.50;94.10;;;;;;6125614;23;19912;-67
2022/11/27 19:04:00;;;;;;;;;;;17.60;94.30;;;;;;6125642;23;19916;-66
2022/11/27 19:06:28;;;;;;;;;;;17.50;93.50;;;;;;6125905;23;20380;-67
2022/11/27 19:08:57;;;;;;;;;;;17.50;93.30;;;;;;6125023;23;20336;-67
2022/11/27 19:11:25;;;;;;;;;;;17.60;93.70;;;;;;6125499;23;19905;-66
2022/11/27 19:13:53;;;;;;;;;;;17.60;93.00;;;;;;6099617;23;19913;-67
2022/11/27 19:16:21;;;;;;;;;;;17.60;93.20;;;;;;6125884;23;19988;-66
2022/11/27 19:18:47;;;;;;;;;;;17.70;93.50;;;;;;6125609;23;19905;-67
2022/11/27 19:21:15;;;;;;;;;;;17.70;92.90;;;;;;6099600;23;20325;-67
2022/11/27 19:23:41;;;;;;;;;;;17.70;93.40;;;;;;6125340;23;19984;-67
2022/11/27 19:26:12;;;;;;;;;;;17.80;93.90;;;;;;6099713;23;19905;-66
2022/11/27 19:28:38;;;;;;;;;;;17.80;94.00;;;;;;6099971;23;20233;-67
2022/11/27 19:31:06;;;;;;;;;;;17.80;93.60;;;;;;6125972;23;19912;-67
2022/11/27 19:33:33;;;;;;;;;;;17.80;93.70;;;;;;6125721;23;19917;-66
2022/11/27 19:36:00;;;;;;;;;;;17.80;93.50;;;;;;6125331;23;20339;-67
2022/11/27 19:38:27;;;;;;;;;;;17.80;92.40;;;;;;6101572;23;20261;-67
2022/11/27 19:40:54;;;;;;;;;;;17.80;92.00;;;;;;6127319;23;19972;-66
2022/11/27 19:43:20;;;;;;;;;;;17.80;91.50;;;;;;6127106;23;20221;-67
2022/11/27 19:45:47;;;;;;;;;;;17.90;90.80;;;;;;6127432;23;19928;-66
2022/11/27 19:48:13;;;;;;;;;;;18.00;91.10;;;;;;6126998;23;19913;-66
2022/11/27 19:50:40;;;;;;;;;;;18.00;90.60;;;;;;6127162;23;19962;-67
2022/11/27 19:53:07;;;;;;;;;;;18.00;90.70;;;;;;6127588;23;20321;-66
2022/11/27 19:55:33;;;;;;;;;;;18.00;90.00;;;;;;6127193;23;19919;-66
2022/11/27 19:58:00;;;;;;;;;;;18.00;90.40;;;;;;6126967;23;19909;-67
2022/11/27 20:00:27;;;;;;;;;;;18.10;90.60;;;;;;6127039;23;19920;-67
2022/11/27 20:02:53;;;;;;;;;;;18.10;90.80;;;;;;6125849;23;19987;-67
2022/11/27 20:05:20;;;;;;;;;;;18.10;89.90;;;;;;6126365;23;19964;-67
2022/11/27 20:07:47;;;;;;;;;;;18.20;90.20;;;;;;6126830;23;19921;-65
2022/11/27 20:10:14;;;;;;;;;;;18.20;90.00;;;;;;6126987;23;19932;-66
2022/11/27 20:12:41;;;;;;;;;;;18.20;90.20;;;;;;6127047;23;20360;-65
2022/11/27 20:15:13;;;;;;;;;;;18.20;90.00;;;;;;6126689;23;20217;-66
2022/11/27 20:17:43;;;;;;;;;;;18.20;90.00;;;;;;6126788;23;19912;-65
2022/11/27 20:20:09;;;;;;;;;;;18.20;90.00;;;;;;6127278;23;19912;-66
2022/11/27 20:22:36;;;;;;;;;;;18.30;90.10;;;;;;6126591;23;19905;-66
2022/11/27 20:25:03;;;;;;;;;;;18.30;90.20;;;;;;6126768;23;19905;-66
2022/11/27 20:27:29;;;;;;;;;;;18.30;90.10;;;;;;6126818;23;19913;-66
2022/11/27 20:29:58;;;;;;;;;;;18.30;90.00;;;;;;6126503;23;20335;-66
2022/11/27 20:32:25;;;;;;;;;;;18.30;89.90;;;;;;6126688;23;19976;-66
2022/11/27 20:34:51;;;;;;;;;;;18.30;90.30;;;;;;6125944;23;19913;-66
2022/11/27 20:37:18;;;;;;;;;;;18.40;90.20;;;;;;6126623;23;19943;-66
2022/11/27 20:39:45;;;;;;;;;;;18.40;90.40;;;;;;6126453;23;19905;-66
2022/11/27 20:42:11;;;;;;;;;;;18.40;90.30;;;;;;6126560;23;20340;-66
2022/11/27 20:44:38;;;;;;;;;;;18.40;89.70;;;;;;6126906;23;19948;-66
2022/11/27 20:47:05;;;;;;;;;;;18.40;90.30;;;;;;6126208;23;19911;-66
2022/11/27 20:49:32;;;;;;;;;;;18.40;90.20;;;;;;6126569;23;19909;-66
2022/11/27 20:52:02;;;;;;;;;;;18.40;89.60;;;;;;6126500;23;19905;-66
2022/11/27 20:54:29;;;;;;;;;;;18.50;89.70;;;;;;6126204;23;19917;-66
2022/11/27 20:56:55;;;;;;;;;;;18.50;89.90;;;;;;6100617;23;19917;-66
2022/11/27 20:59:22;;;;;;;;;;;18.50;89.10;;;;;;6126200;23;19905;-66
2022/11/27 21:01:49;;;;;;;;;;;18.50;89.00;;;;;;6126743;23;19905;-66
2022/11/27 21:04:24;;;;;;;;;;;18.40;88.70;;;;;;6126599;23;19933;-66
2022/11/27 21:06:51;;;;;;;;;;;18.50;88.90;;;;;;6125977;23;19909;-66
2022/11/27 21:09:18;;;;;;;;;;;18.50;89.00;;;;;;6126050;23;19995;-66
2022/11/27 21:11:46;;;;;;;;;;;18.50;88.20;;;;;;6126684;23;19936;-66
2022/11/27 21:14:13;;;;;;;;;;;18.50;88.40;;;;;;6126310;23;19999;-66
2022/11/27 21:16:40;;;;;;;;;;;18.50;88.50;;;;;;6126109;23;19905;-66
2022/11/27 21:19:10;;;;;;;;;;;18.50;87.70;;;;;;6125877;23;19905;-66
2022/11/27 21:21:36;;;;;;;;;;;18.60;89.30;;;;;;6100536;23;19901;-66
2022/11/27 21:24:03;;;;;;;;;;;18.50;88.60;;;;;;6126415;23;19952;-66
2022/11/27 21:26:30;;;;;;;;;;;18.60;88.30;;;;;;6126381;23;19905;-66
2022/11/27 21:28:56;;;;;;;;;;;18.60;87.30;;;;;;6125901;23;19916;-66
2022/11/27 21:31:23;;;;;;;;;;;18.60;87.10;;;;;;6126100;23;19905;-66
2022/11/27 21:33:54;;;;;;;;;;;18.70;87.30;;;;;;6076044;23;20222;-66
2022/11/27 21:36:21;;;;;;;;;;;18.70;86.90;;;;;;6125740;23;19912;-66
2022/11/27 21:38:48;;;;;;;;;;;18.80;87.30;;;;;;6125924;23;19932;-66
2022/11/27 21:41:16;;;;;;;;;;;18.80;86.80;;;;;;6125947;23;19979;-66
2022/11/27 21:43:43;;;;;;;;;;;18.80;86.60;;;;;;6126112;23;19905;-66
2022/11/27 21:46:15;;;;;;;;;;;18.90;87.20;;;;;;6100437;23;19960;-66
2022/11/27 21:48:43;;;;;;;;;;;18.90;86.10;;;;;;6101465;23;19905;-66
2022/11/27 21:51:13;;;;;;;;;;;18.90;86.50;;;;;;6126350;23;19922;-66
2022/11/27 21:53:41;;;;;;;;;;;19.10;86.40;;;;;;6100573;23;19908;-66
2022/11/27 21:56:08;;;;;;;;;;;19.20;86.60;;;;;;6125861;23;20423;-66
2022/11/27 21:58:35;;;;;;;;;;;19.30;86.30;;;;;;6125584;23;19978;-66
2022/11/27 22:01:02;;;;;;;;;;;19.30;85.20;;;;;;6100013;23;20030;-66
2022/11/27 22:03:28;;;;;;;;;;;19.30;85.30;;;;;;6126030;23;19905;-66
2022/11/27 22:05:58;;;;;;;;;;;19.40;84.90;;;;;;6125769;23;20329;-66
2022/11/27 22:08:25;;;;;;;;;;;19.50;84.50;;;;;;6125423;23;19917;-66
2022/11/27 22:10:51;;;;;;;;;;;19.70;84.90;;;;;;6125662;23;20245;-66
2022/11/27 22:13:18;;;;;;;;;;;19.80;85.90;;;;;;6125967;23;19905;-66
2022/11/27 22:15:44;;;;;;;;;;;19.90;83.30;;;;;;6125648;23;19921;-66
2022/11/27 22:18:11;;;;;;;;;;;19.90;82.80;;;;;;6125495;23;19909;-66
2022/11/27 22:20:38;;;;;;;;;;;20.10;84.30;;;;;;6125651;23;19952;-66
2022/11/27 22:23:05;;;;;;;;;;;20.20;83.60;;;;;;6125544;23;20369;-66
2022/11/27 22:25:31;;;;;;;;;;;20.10;82.80;;;;;;6100106;23;20038;-66
2022/11/27 22:27:58;;;;;;;;;;;20.20;82.90;;;;;;6125919;23;19909;-66
2022/11/27 22:30:24;;;;;;;;;;;20.10;81.70;;;;;;6125598;23;20284;-66
2022/11/27 22:32:54;;;;;;;;;;;20.00;82.50;;;;;;6125156;23;19936;-65
2022/11/27 22:35:21;;;;;;;;;;;20.00;83.20;;;;;;6125285;23;19917;-66
2022/11/27 22:37:47;;;;;;;;;;;20.00;81.10;;;;;;6125774;23;19905;-66
2022/11/27 22:40:14;;;;;;;;;;;19.90;82.40;;;;;;6125605;23;19905;-66
2022/11/27 22:42:41;;;;;;;;;;;19.90;83.60;;;;;;6125806;23;19921;-65
2022/11/27 22:45:07;;;;;;;;;;;19.90;83.80;;;;;;6099801;23;19905;-65
2022/11/27 22:47:34;;;;;;;;;;;19.90;83.70;;;;;;6125688;23;19905;-65
2022/11/27 22:50:01;;;;;;;;;;;19.80;82.40;;;;;;6125578;23;19912;-65
2022/11/27 22:52:28;;;;;;;;;;;19.80;82.80;;;;;;6125394;23;19905;-66
2022/11/27 22:54:54;;;;;;;;;;;19.80;83.40;;;;;;6125306;23;19913;-66
2022/11/27 22:57:21;;;;;;;;;;;19.80;83.10;;;;;;6125385;23;20433;-66
2022/11/27 22:59:48;;;;;;;;;;;19.70;83.20;;;;;;6125031;23;20335;-65
2022/11/27 23:02:14;;;;;;;;;;;19.80;84.30;;;;;;6125631;23;19936;-65
2022/11/27 23:04:41;;;;;;;;;;;19.80;82.80;;;;;;6124732;23;19909;-65
2022/11/27 23:07:07;;;;;;;;;;;19.80;82.70;;;;;;6124875;23;20352;-65
2022/11/27 23:09:34;;;;;;;;;;;19.80;83.20;;;;;;6124797;23;19920;-65
2022/11/27 23:12:01;;;;;;;;;;;19.80;82.50;;;;;;6125321;23;19928;-65
2022/11/27 23:14:27;;;;;;;;;;;19.80;83.00;;;;;;6125422;23;20179;-65
2022/11/27 23:16:54;;;;;;;;;;;19.70;82.60;;;;;;6125179;23;19912;-66
2022/11/27 23:19:20;;;;;;;;;;;19.70;83.40;;;;;;6124871;23;20032;-65
2022/11/27 23:21:47;;;;;;;;;;;19.70;82.50;;;;;;6125230;23;19905;-65
2022/11/27 23:24:14;;;;;;;;;;;19.70;82.80;;;;;;6124758;23;19936;-65
2022/11/27 23:26:41;;;;;;;;;;;19.70;82.20;;;;;;6125291;23;19992;-65
2022/11/27 23:29:08;;;;;;;;;;;19.50;80.60;;;;;;6125063;23;19909;-65
2022/11/27 23:31:35;;;;;;;;;;;19.50;80.60;;;;;;6124942;23;19905;-65
2022/11/27 23:34:02;;;;;;;;;;;19.50;81.00;;;;;;6125202;23;19967;-65
2022/11/27 23:36:29;;;;;;;;;;;19.50;81.10;;;;;;6125610;23;19905;-65
2022/11/27 23:38:56;;;;;;;;;;;19.60;82.70;;;;;;6125829;23;19935;-65
2022/11/27 23:41:23;;;;;;;;;;;19.50;80.80;;;;;;6099265;23;20316;-65
2022/11/27 23:43:50;;;;;;;;;;;19.50;80.50;;;;;;6125181;23;19940;-65
2022/11/27 23:46:17;;;;;;;;;;;19.50;81.70;;;;;;6125031;23;19925;-65
2022/11/27 23:48:44;;;;;;;;;;;19.50;82.20;;;;;;6125170;23;19905;-65
2022/11/27 23:51:11;;;;;;;;;;;19.50;81.60;;;;;;6125084;23;19939;-65
2022/11/27 23:53:37;;;;;;;;;;;19.50;80.40;;;;;;6124761;23;19927;-65
2022/11/27 23:56:05;;;;;;;;;;;19.40;81.10;;;;;;6125003;23;20312;-65
2022/11/27 23:58:31;;;;;;;;;;;19.50;80.50;;;;;;6124937;23;20241;-65
